sensor_id;sensor_type;location;lat;lon;timestamp;temperature;humidity
27803;DHT22;15182;48.174;11.562;2022-07-06T00:01:11;26.00;61.60
27803;DHT22;15182;48.174;11.562;2022-07-06T00:03:40;25.90;61.60
27803;DHT22;15182;48.174;11.562;2022-07-06T00:06:08;25.90;61.80
27803;DHT22;15182;48.174;11.562;2022-07-06T00:08:36;25.80;61.80
27803;DHT22;15182;48.174;11.562;2022-07-06T00:11:04;25.80;62.00
27803;DHT22;15182;48.174;11.562;2022-07-06T00:13:32;25.70;62.20
27803;DHT22;15182;48.174;11.562;2022-07-06T00:16:00;25.70;62.30
27803;DHT22;15182;48.174;11.562;2022-07-06T00:18:28;25.70;62.60
27803;DHT22;15182;48.174;11.562;2022-07-06T00:20:58;25.60;62.70
27803;DHT22;15182;48.174;11.562;2022-07-06T00:23:26;25.60;62.90
27803;DHT22;15182;48.174;11.562;2022-07-06T00:25:54;25.60;63.00
27803;DHT22;15182;48.174;11.562;2022-07-06T00:28:21;25.60;63.00
27803;DHT22;15182;48.174;11.562;2022-07-06T00:30:50;25.60;63.20
27803;DHT22;15182;48.174;11.562;2022-07-06T00:33:18;25.60;63.50
27803;DHT22;15182;48.174;11.562;2022-07-06T00:35:46;25.50;63.60
27803;DHT22;15182;48.174;11.562;2022-07-06T00:38:15;25.50;63.90
27803;DHT22;15182;48.174;11.562;2022-07-06T00:40:43;25.50;64.10
27803;DHT22;15182;48.174;11.562;2022-07-06T00:43:11;25.50;64.20
27803;DHT22;15182;48.174;11.562;2022-07-06T00:45:39;25.50;64.20
27803;DHT22;15182;48.174;11.562;2022-07-06T00:48:07;25.40;64.30
27803;DHT22;15182;48.174;11.562;2022-07-06T00:50:35;25.40;64.40
27803;DHT22;15182;48.174;11.562;2022-07-06T00:53:04;25.40;64.60
27803;DHT22;15182;48.174;11.562;2022-07-06T00:55:36;25.40;64.90
27803;DHT22;15182;48.174;11.562;2022-07-06T00:58:07;25.30;65.00
27803;DHT22;15182;48.174;11.562;2022-07-06T01:00:36;25.30;65.30
27803;DHT22;15182;48.174;11.562;2022-07-06T01:03:04;25.20;65.30
27803;DHT22;15182;48.174;11.562;2022-07-06T01:05:32;25.20;65.50
27803;DHT22;15182;48.174;11.562;2022-07-06T01:08:00;25.20;65.60
27803;DHT22;15182;48.174;11.562;2022-07-06T01:10:28;25.20;66.70
27803;DHT22;15182;48.174;11.562;2022-07-06T01:12:57;25.20;66.00
27803;DHT22;15182;48.174;11.562;2022-07-06T01:15:26;25.20;66.20
27803;DHT22;15182;48.174;11.562;2022-07-06T01:17:54;25.20;66.10
27803;DHT22;15182;48.174;11.562;2022-07-06T01:20:30;25.10;66.00
27803;DHT22;15182;48.174;11.562;2022-07-06T01:22:59;25.10;66.20
27803;DHT22;15182;48.174;11.562;2022-07-06T01:25:27;25.00;66.20
27803;DHT22;15182;48.174;11.562;2022-07-06T01:27:55;25.00;66.30
27803;DHT22;15182;48.174;11.562;2022-07-06T01:30:23;24.90;66.50
27803;DHT22;15182;48.174;11.562;2022-07-06T01:32:51;24.90;66.70
27803;DHT22;15182;48.174;11.562;2022-07-06T01:35:19;24.80;66.80
27803;DHT22;15182;48.174;11.562;2022-07-06T01:37:48;24.80;67.00
27803;DHT22;15182;48.174;11.562;2022-07-06T01:40:16;24.80;67.40
27803;DHT22;15182;48.174;11.562;2022-07-06T01:42:44;24.70;68.10
27803;DHT22;15182;48.174;11.562;2022-07-06T01:45:13;24.70;67.40
27803;DHT22;15182;48.174;11.562;2022-07-06T01:47:41;24.60;67.60
27803;DHT22;15182;48.174;11.562;2022-07-06T01:50:12;24.60;67.70
27803;DHT22;15182;48.174;11.562;2022-07-06T01:52:47;24.60;67.80
27803;DHT22;15182;48.174;11.562;2022-07-06T01:55:19;24.60;68.00
27803;DHT22;15182;48.174;11.562;2022-07-06T01:57:50;24.50;68.00
27803;DHT22;15182;48.174;11.562;2022-07-06T02:00:22;24.50;68.00
27803;DHT22;15182;48.174;11.562;2022-07-06T02:02:53;24.50;68.10
27803;DHT22;15182;48.174;11.562;2022-07-06T02:05:25;24.50;68.40
27803;DHT22;15182;48.174;11.562;2022-07-06T02:07:57;24.40;68.40
27803;DHT22;15182;48.174;11.562;2022-07-06T02:10:29;24.40;68.50
27803;DHT22;15182;48.174;11.562;2022-07-06T02:13:00;24.40;69.20
27803;DHT22;15182;48.174;11.562;2022-07-06T02:15:33;24.40;68.40
27803;DHT22;15182;48.174;11.562;2022-07-06T02:18:05;24.40;68.40
27803;DHT22;15182;48.174;11.562;2022-07-06T02:20:36;24.40;68.50
27803;DHT22;15182;48.174;11.562;2022-07-06T02:23:09;24.40;68.50
27803;DHT22;15182;48.174;11.562;2022-07-06T02:25:41;24.30;68.80
27803;DHT22;15182;48.174;11.562;2022-07-06T02:28:13;24.20;68.80
27803;DHT22;15182;48.174;11.562;2022-07-06T02:30:44;24.20;68.90
27803;DHT22;15182;48.174;11.562;2022-07-06T02:33:16;24.20;69.00
27803;DHT22;15182;48.174;11.562;2022-07-06T02:35:47;24.10;69.00
27803;DHT22;15182;48.174;11.562;2022-07-06T02:38:20;24.10;69.00
27803;DHT22;15182;48.174;11.562;2022-07-06T02:40:52;24.10;69.30
27803;DHT22;15182;48.174;11.562;2022-07-06T02:43:24;24.10;69.30
27803;DHT22;15182;48.174;11.562;2022-07-06T02:45:55;24.00;69.40
27803;DHT22;15182;48.174;11.562;2022-07-06T02:48:27;24.00;69.40
27803;DHT22;15182;48.174;11.562;2022-07-06T02:50:59;23.90;69.40
27803;DHT22;15182;48.174;11.562;2022-07-06T02:53:33;23.90;69.70
27803;DHT22;15182;48.174;11.562;2022-07-06T02:56:06;23.90;70.10
27803;DHT22;15182;48.174;11.562;2022-07-06T02:58:37;23.90;70.00
27803;DHT22;15182;48.174;11.562;2022-07-06T03:01:09;23.80;70.00
27803;DHT22;15182;48.174;11.562;2022-07-06T03:03:41;23.80;70.00
27803;DHT22;15182;48.174;11.562;2022-07-06T03:06:12;23.80;70.20
27803;DHT22;15182;48.174;11.562;2022-07-06T03:08:45;23.80;70.30
27803;DHT22;15182;48.174;11.562;2022-07-06T03:11:16;23.80;70.60
27803;DHT22;15182;48.174;11.562;2022-07-06T03:13:48;23.80;70.40
27803;DHT22;15182;48.174;11.562;2022-07-06T03:16:20;23.90;70.60
27803;DHT22;15182;48.174;11.562;2022-07-06T03:18:51;23.90;70.60
27803;DHT22;15182;48.174;11.562;2022-07-06T03:21:23;23.90;70.60
27803;DHT22;15182;48.174;11.562;2022-07-06T03:23:55;23.90;70.80
27803;DHT22;15182;48.174;11.562;2022-07-06T03:26:27;23.90;70.90
27803;DHT22;15182;48.174;11.562;2022-07-06T03:28:59;24.00;71.00
27803;DHT22;15182;48.174;11.562;2022-07-06T03:31:30;24.00;71.00
27803;DHT22;15182;48.174;11.562;2022-07-06T03:34:03;24.00;71.00
27803;DHT22;15182;48.174;11.562;2022-07-06T03:36:35;24.00;71.10
27803;DHT22;15182;48.174;11.562;2022-07-06T03:39:07;24.00;71.00
27803;DHT22;15182;48.174;11.562;2022-07-06T03:41:40;24.00;71.20
27803;DHT22;15182;48.174;11.562;2022-07-06T03:44:12;24.00;71.10
27803;DHT22;15182;48.174;11.562;2022-07-06T03:46:43;24.00;71.20
27803;DHT22;15182;48.174;11.562;2022-07-06T03:49:15;24.00;71.30
27803;DHT22;15182;48.174;11.562;2022-07-06T03:51:47;24.00;71.40
27803;DHT22;15182;48.174;11.562;2022-07-06T03:54:20;24.00;71.50
27803;DHT22;15182;48.174;11.562;2022-07-06T03:56:51;23.90;71.80
27803;DHT22;15182;48.174;11.562;2022-07-06T03:59:23;23.90;71.70
27803;DHT22;15182;48.174;11.562;2022-07-06T04:01:55;23.90;71.80
27803;DHT22;15182;48.174;11.562;2022-07-06T04:04:27;23.90;71.90
27803;DHT22;15182;48.174;11.562;2022-07-06T04:06:58;23.90;72.00
27803;DHT22;15182;48.174;11.562;2022-07-06T04:09:31;23.90;72.20
27803;DHT22;15182;48.174;11.562;2022-07-06T04:12:03;23.80;72.40
27803;DHT22;15182;48.174;11.562;2022-07-06T04:14:35;23.90;72.50
27803;DHT22;15182;48.174;11.562;2022-07-06T04:17:07;23.80;72.50
27803;DHT22;15182;48.174;11.562;2022-07-06T04:19:52;23.80;72.70
27803;DHT22;15182;48.174;11.562;2022-07-06T04:22:24;23.80;72.90
27803;DHT22;15182;48.174;11.562;2022-07-06T04:24:57;23.80;73.00
27803;DHT22;15182;48.174;11.562;2022-07-06T04:27:28;23.80;73.10
27803;DHT22;15182;48.174;11.562;2022-07-06T04:29:59;23.80;73.10
27803;DHT22;15182;48.174;11.562;2022-07-06T04:32:31;23.80;73.20
27803;DHT22;15182;48.174;11.562;2022-07-06T04:35:03;23.70;73.30
27803;DHT22;15182;48.174;11.562;2022-07-06T04:37:36;23.70;73.50
27803;DHT22;15182;48.174;11.562;2022-07-06T04:40:11;23.60;73.60
27803;DHT22;15182;48.174;11.562;2022-07-06T04:42:43;23.60;74.10
27803;DHT22;15182;48.174;11.562;2022-07-06T04:45:15;23.60;74.10
27803;DHT22;15182;48.174;11.562;2022-07-06T04:47:46;23.60;74.30
27803;DHT22;15182;48.174;11.562;2022-07-06T04:50:19;23.50;74.40
27803;DHT22;15182;48.174;11.562;2022-07-06T04:52:51;23.50;74.70
27803;DHT22;15182;48.174;11.562;2022-07-06T04:55:25;23.50;75.00
27803;DHT22;15182;48.174;11.562;2022-07-06T04:57:57;23.50;75.20
27803;DHT22;15182;48.174;11.562;2022-07-06T05:00:29;23.50;76.10
27803;DHT22;15182;48.174;11.562;2022-07-06T05:03:00;23.40;75.40
27803;DHT22;15182;48.174;11.562;2022-07-06T05:05:32;23.30;75.60
27803;DHT22;15182;48.174;11.562;2022-07-06T05:08:06;23.30;75.70
27803;DHT22;15182;48.174;11.562;2022-07-06T05:10:38;23.30;76.10
27803;DHT22;15182;48.174;11.562;2022-07-06T05:13:10;23.30;76.30
27803;DHT22;15182;48.174;11.562;2022-07-06T05:15:41;23.30;76.20
27803;DHT22;15182;48.174;11.562;2022-07-06T05:18:13;23.20;76.30
27803;DHT22;15182;48.174;11.562;2022-07-06T05:20:45;23.20;76.40
27803;DHT22;15182;48.174;11.562;2022-07-06T05:23:17;23.20;76.50
27803;DHT22;15182;48.174;11.562;2022-07-06T05:25:50;23.30;76.80
27803;DHT22;15182;48.174;11.562;2022-07-06T05:28:21;23.30;77.00
27803;DHT22;15182;48.174;11.562;2022-07-06T05:30:53;23.30;77.00
27803;DHT22;15182;48.174;11.562;2022-07-06T05:33:24;23.30;77.00
27803;DHT22;15182;48.174;11.562;2022-07-06T05:35:57;23.30;76.90
27803;DHT22;15182;48.174;11.562;2022-07-06T05:38:30;23.30;77.00
27803;DHT22;15182;48.174;11.562;2022-07-06T05:41:03;23.30;77.00
27803;DHT22;15182;48.174;11.562;2022-07-06T05:43:37;23.40;76.80
27803;DHT22;15182;48.174;11.562;2022-07-06T05:46:09;23.40;76.60
27803;DHT22;15182;48.174;11.562;2022-07-06T05:48:43;23.40;76.40
27803;DHT22;15182;48.174;11.562;2022-07-06T05:51:32;23.40;76.70
27803;DHT22;15182;48.174;11.562;2022-07-06T05:54:03;23.40;76.40
27803;DHT22;15182;48.174;11.562;2022-07-06T05:56:37;23.50;77.40
27803;DHT22;15182;48.174;11.562;2022-07-06T05:59:11;23.50;76.40
27803;DHT22;15182;48.174;11.562;2022-07-06T06:01:42;23.50;76.40
27803;DHT22;15182;48.174;11.562;2022-07-06T06:04:20;23.50;76.20
27803;DHT22;15182;48.174;11.562;2022-07-06T06:06:51;23.50;76.30
27803;DHT22;15182;48.174;11.562;2022-07-06T06:09:24;23.50;76.20
27803;DHT22;15182;48.174;11.562;2022-07-06T06:11:58;23.50;75.90
27803;DHT22;15182;48.174;11.562;2022-07-06T06:14:31;23.60;75.60
27803;DHT22;15182;48.174;11.562;2022-07-06T06:17:04;23.60;75.40
27803;DHT22;15182;48.174;11.562;2022-07-06T06:19:37;23.60;75.30
27803;DHT22;15182;48.174;11.562;2022-07-06T06:22:09;23.60;75.00
27803;DHT22;15182;48.174;11.562;2022-07-06T06:24:41;23.60;75.20
27803;DHT22;15182;48.174;11.562;2022-07-06T06:27:14;23.70;75.20
27803;DHT22;15182;48.174;11.562;2022-07-06T06:29:46;23.70;75.00
27803;DHT22;15182;48.174;11.562;2022-07-06T06:32:17;23.80;74.80
27803;DHT22;15182;48.174;11.562;2022-07-06T06:34:48;23.90;74.90
27803;DHT22;15182;48.174;11.562;2022-07-06T06:37:19;23.90;74.60
27803;DHT22;15182;48.174;11.562;2022-07-06T06:39:51;24.00;74.30
27803;DHT22;15182;48.174;11.562;2022-07-06T06:42:23;24.10;74.30
27803;DHT22;15182;48.174;11.562;2022-07-06T06:44:55;24.20;74.00
27803;DHT22;15182;48.174;11.562;2022-07-06T06:47:28;24.20;73.70
27803;DHT22;15182;48.174;11.562;2022-07-06T06:49:59;24.30;73.80
27803;DHT22;15182;48.174;11.562;2022-07-06T06:52:32;24.40;73.90
27803;DHT22;15182;48.174;11.562;2022-07-06T06:55:03;24.50;74.90
27803;DHT22;15182;48.174;11.562;2022-07-06T06:57:38;24.60;74.00
27803;DHT22;15182;48.174;11.562;2022-07-06T07:00:10;24.70;73.70
27803;DHT22;15182;48.174;11.562;2022-07-06T07:02:43;24.80;73.40
27803;DHT22;15182;48.174;11.562;2022-07-06T07:05:16;24.90;73.20
27803;DHT22;15182;48.174;11.562;2022-07-06T07:07:47;25.00;73.20
27803;DHT22;15182;48.174;11.562;2022-07-06T07:10:19;25.10;73.20
27803;DHT22;15182;48.174;11.562;2022-07-06T07:12:52;25.20;72.90
27803;DHT22;15182;48.174;11.562;2022-07-06T07:15:24;25.40;72.50
27803;DHT22;15182;48.174;11.562;2022-07-06T07:17:55;25.40;72.50
27803;DHT22;15182;48.174;11.562;2022-07-06T07:20:26;25.60;72.50
27803;DHT22;15182;48.174;11.562;2022-07-06T07:22:59;25.70;72.20
27803;DHT22;15182;48.174;11.562;2022-07-06T07:25:32;25.80;71.50
27803;DHT22;15182;48.174;11.562;2022-07-06T07:28:05;25.80;71.00
27803;DHT22;15182;48.174;11.562;2022-07-06T07:30:38;25.90;71.00
27803;DHT22;15182;48.174;11.562;2022-07-06T07:33:09;26.00;70.50
27803;DHT22;15182;48.174;11.562;2022-07-06T07:35:42;26.00;70.50
27803;DHT22;15182;48.174;11.562;2022-07-06T07:38:14;26.00;69.90
27803;DHT22;15182;48.174;11.562;2022-07-06T07:40:45;26.00;69.90
27803;DHT22;15182;48.174;11.562;2022-07-06T07:43:18;26.00;70.10
27803;DHT22;15182;48.174;11.562;2022-07-06T07:45:49;26.10;70.00
27803;DHT22;15182;48.174;11.562;2022-07-06T07:48:21;26.10;69.80
27803;DHT22;15182;48.174;11.562;2022-07-06T07:50:52;26.20;69.60
27803;DHT22;15182;48.174;11.562;2022-07-06T07:53:25;26.20;69.50
27803;DHT22;15182;48.174;11.562;2022-07-06T07:55:57;26.40;69.30
27803;DHT22;15182;48.174;11.562;2022-07-06T07:58:30;26.40;68.90
27803;DHT22;15182;48.174;11.562;2022-07-06T08:01:02;26.50;68.20
27803;DHT22;15182;48.174;11.562;2022-07-06T08:03:33;26.60;68.30
27803;DHT22;15182;48.174;11.562;2022-07-06T08:06:04;26.70;68.20
27803;DHT22;15182;48.174;11.562;2022-07-06T08:08:38;26.90;68.20
27803;DHT22;15182;48.174;11.562;2022-07-06T08:11:10;27.00;68.30
27803;DHT22;15182;48.174;11.562;2022-07-06T08:13:43;27.10;68.20
27803;DHT22;15182;48.174;11.562;2022-07-06T08:16:15;27.20;67.80
27803;DHT22;15182;48.174;11.562;2022-07-06T08:18:48;27.30;67.60
27803;DHT22;15182;48.174;11.562;2022-07-06T08:21:20;27.40;67.40
27803;DHT22;15182;48.174;11.562;2022-07-06T08:23:53;27.50;67.30
27803;DHT22;15182;48.174;11.562;2022-07-06T08:26:28;27.60;67.30
27803;DHT22;15182;48.174;11.562;2022-07-06T08:29:01;27.70;67.50
27803;DHT22;15182;48.174;11.562;2022-07-06T08:31:32;27.70;67.30
27803;DHT22;15182;48.174;11.562;2022-07-06T08:34:04;27.80;67.50
27803;DHT22;15182;48.174;11.562;2022-07-06T08:36:36;27.90;67.30
27803;DHT22;15182;48.174;11.562;2022-07-06T08:39:07;28.00;67.10
27803;DHT22;15182;48.174;11.562;2022-07-06T08:41:41;28.10;67.10
27803;DHT22;15182;48.174;11.562;2022-07-06T08:44:17;28.20;67.00
27803;DHT22;15182;48.174;11.562;2022-07-06T08:46:51;28.30;66.60
27803;DHT22;15182;48.174;11.562;2022-07-06T08:49:23;28.30;66.30
27803;DHT22;15182;48.174;11.562;2022-07-06T08:51:58;28.40;66.40
27803;DHT22;15182;48.174;11.562;2022-07-06T08:54:29;28.50;66.10
27803;DHT22;15182;48.174;11.562;2022-07-06T08:57:01;28.50;66.00
27803;DHT22;15182;48.174;11.562;2022-07-06T08:59:35;28.60;65.50
27803;DHT22;15182;48.174;11.562;2022-07-06T09:02:06;28.60;65.30
27803;DHT22;15182;48.174;11.562;2022-07-06T09:04:41;28.70;65.30
27803;DHT22;15182;48.174;11.562;2022-07-06T09:07:13;28.70;64.90
27803;DHT22;15182;48.174;11.562;2022-07-06T09:09:44;28.80;65.00
27803;DHT22;15182;48.174;11.562;2022-07-06T09:12:17;28.90;64.80
27803;DHT22;15182;48.174;11.562;2022-07-06T09:14:50;29.00;64.70
27803;DHT22;15182;48.174;11.562;2022-07-06T09:17:24;29.10;64.50
27803;DHT22;15182;48.174;11.562;2022-07-06T09:19:58;29.20;64.60
27803;DHT22;15182;48.174;11.562;2022-07-06T09:22:31;29.30;64.20
27803;DHT22;15182;48.174;11.562;2022-07-06T09:25:06;29.30;64.20
27803;DHT22;15182;48.174;11.562;2022-07-06T09:27:40;29.40;64.20
27803;DHT22;15182;48.174;11.562;2022-07-06T09:30:16;29.50;63.70
27803;DHT22;15182;48.174;11.562;2022-07-06T09:32:49;29.60;62.80
27803;DHT22;15182;48.174;11.562;2022-07-06T09:35:22;29.60;62.60
27803;DHT22;15182;48.174;11.562;2022-07-06T09:38:05;29.70;62.50
27803;DHT22;15182;48.174;11.562;2022-07-06T09:40:39;29.70;62.10
27803;DHT22;15182;48.174;11.562;2022-07-06T09:43:13;29.80;62.00
27803;DHT22;15182;48.174;11.562;2022-07-06T09:45:48;29.80;62.10
27803;DHT22;15182;48.174;11.562;2022-07-06T09:48:24;29.90;61.70
27803;DHT22;15182;48.174;11.562;2022-07-06T09:50:58;29.90;61.10
27803;DHT22;15182;48.174;11.562;2022-07-06T09:53:31;30.00;61.60
27803;DHT22;15182;48.174;11.562;2022-07-06T09:56:06;30.10;60.90
27803;DHT22;15182;48.174;11.562;2022-07-06T09:58:40;30.20;60.80
27803;DHT22;15182;48.174;11.562;2022-07-06T10:01:12;30.30;60.60
27803;DHT22;15182;48.174;11.562;2022-07-06T10:03:54;30.30;60.80
27803;DHT22;15182;48.174;11.562;2022-07-06T10:06:26;30.30;60.30
27803;DHT22;15182;48.174;11.562;2022-07-06T10:08:59;30.40;59.80
27803;DHT22;15182;48.174;11.562;2022-07-06T10:11:32;30.40;59.10
27803;DHT22;15182;48.174;11.562;2022-07-06T10:14:09;30.40;59.30
27803;DHT22;15182;48.174;11.562;2022-07-06T10:16:43;30.30;59.40
27803;DHT22;15182;48.174;11.562;2022-07-06T10:19:18;30.40;59.70
27803;DHT22;15182;48.174;11.562;2022-07-06T10:21:51;30.40;59.70
27803;DHT22;15182;48.174;11.562;2022-07-06T10:24:22;30.40;59.70
27803;DHT22;15182;48.174;11.562;2022-07-06T10:26:54;30.50;60.00
27803;DHT22;15182;48.174;11.562;2022-07-06T10:29:27;30.60;59.90
27803;DHT22;15182;48.174;11.562;2022-07-06T10:32:01;30.70;59.40
27803;DHT22;15182;48.174;11.562;2022-07-06T10:34:33;30.90;58.90
27803;DHT22;15182;48.174;11.562;2022-07-06T10:37:04;31.00;58.60
27803;DHT22;15182;48.174;11.562;2022-07-06T10:39:37;31.00;58.50
27803;DHT22;15182;48.174;11.562;2022-07-06T10:42:41;31.10;58.20
27803;DHT22;15182;48.174;11.562;2022-07-06T10:45:49;31.10;57.50
27803;DHT22;15182;48.174;11.562;2022-07-06T10:48:21;31.10;58.10
27803;DHT22;15182;48.174;11.562;2022-07-06T10:50:54;31.20;58.10
27803;DHT22;15182;48.174;11.562;2022-07-06T10:53:28;31.20;57.90
27803;DHT22;15182;48.174;11.562;2022-07-06T10:56:03;31.30;58.00
27803;DHT22;15182;48.174;11.562;2022-07-06T10:58:35;31.40;57.40
27803;DHT22;15182;48.174;11.562;2022-07-06T11:01:10;31.50;57.70
27803;DHT22;15182;48.174;11.562;2022-07-06T11:03:44;31.60;57.70
27803;DHT22;15182;48.174;11.562;2022-07-06T11:06:17;31.70;56.80
27803;DHT22;15182;48.174;11.562;2022-07-06T11:08:57;31.80;56.50
27803;DHT22;15182;48.174;11.562;2022-07-06T11:11:40;31.80;56.00
27803;DHT22;15182;48.174;11.562;2022-07-06T11:14:17;31.70;56.00
27803;DHT22;15182;48.174;11.562;2022-07-06T11:17:04;31.70;56.40
27803;DHT22;15182;48.174;11.562;2022-07-06T11:19:37;31.70;56.10
27803;DHT22;15182;48.174;11.562;2022-07-06T11:22:10;31.70;56.20
27803;DHT22;15182;48.174;11.562;2022-07-06T11:24:42;31.70;56.20
27803;DHT22;15182;48.174;11.562;2022-07-06T11:27:14;31.70;56.30
27803;DHT22;15182;48.174;11.562;2022-07-06T11:29:45;31.80;56.50
27803;DHT22;15182;48.174;11.562;2022-07-06T11:32:26;31.80;56.50
27803;DHT22;15182;48.174;11.562;2022-07-06T11:35:00;31.90;55.90
27803;DHT22;15182;48.174;11.562;2022-07-06T11:37:31;31.80;56.30
27803;DHT22;15182;48.174;11.562;2022-07-06T11:40:08;31.60;56.30
27803;DHT22;15182;48.174;11.562;2022-07-06T11:42:41;31.40;55.70
27803;DHT22;15182;48.174;11.562;2022-07-06T11:45:27;31.30;56.20
27803;DHT22;15182;48.174;11.562;2022-07-06T11:48:12;31.20;56.00
27803;DHT22;15182;48.174;11.562;2022-07-06T11:50:45;31.20;56.10
27803;DHT22;15182;48.174;11.562;2022-07-06T11:53:26;31.20;57.00
27803;DHT22;15182;48.174;11.562;2022-07-06T11:56:03;31.30;56.40
27803;DHT22;15182;48.174;11.562;2022-07-06T11:58:36;31.50;55.80
27803;DHT22;15182;48.174;11.562;2022-07-06T12:01:13;31.60;56.00
27803;DHT22;15182;48.174;11.562;2022-07-06T12:03:45;31.70;55.60
27803;DHT22;15182;48.174;11.562;2022-07-06T12:06:21;31.80;55.30
27803;DHT22;15182;48.174;11.562;2022-07-06T12:08:54;31.80;54.70
27803;DHT22;15182;48.174;11.562;2022-07-06T12:11:29;31.70;55.10
27803;DHT22;15182;48.174;11.562;2022-07-06T12:14:03;31.60;55.10
27803;DHT22;15182;48.174;11.562;2022-07-06T12:16:44;31.50;55.50
27803;DHT22;15182;48.174;11.562;2022-07-06T12:19:17;31.40;55.50
27803;DHT22;15182;48.174;11.562;2022-07-06T12:21:51;31.40;55.20
27803;DHT22;15182;48.174;11.562;2022-07-06T12:24:24;31.40;55.20
27803;DHT22;15182;48.174;11.562;2022-07-06T12:26:56;31.40;55.10
27803;DHT22;15182;48.174;11.562;2022-07-06T12:29:38;31.50;55.00
27803;DHT22;15182;48.174;11.562;2022-07-06T12:32:14;31.60;55.20
27803;DHT22;15182;48.174;11.562;2022-07-06T12:34:46;31.80;54.70
27803;DHT22;15182;48.174;11.562;2022-07-06T12:37:26;31.80;55.30
27803;DHT22;15182;48.174;11.562;2022-07-06T12:39:58;32.00;55.20
27803;DHT22;15182;48.174;11.562;2022-07-06T12:42:29;32.20;54.70
27803;DHT22;15182;48.174;11.562;2022-07-06T12:45:01;32.30;54.30
27803;DHT22;15182;48.174;11.562;2022-07-06T12:47:32;32.40;54.30
27803;DHT22;15182;48.174;11.562;2022-07-06T12:50:09;32.50;54.20
27803;DHT22;15182;48.174;11.562;2022-07-06T12:52:42;32.50;53.70
27803;DHT22;15182;48.174;11.562;2022-07-06T12:55:14;32.50;53.90
27803;DHT22;15182;48.174;11.562;2022-07-06T12:57:47;32.50;54.10
27803;DHT22;15182;48.174;11.562;2022-07-06T13:00:20;32.50;53.90
27803;DHT22;15182;48.174;11.562;2022-07-06T13:02:53;32.40;53.10
27803;DHT22;15182;48.174;11.562;2022-07-06T13:05:27;32.30;53.20
27803;DHT22;15182;48.174;11.562;2022-07-06T13:08:00;32.20;53.30
27803;DHT22;15182;48.174;11.562;2022-07-06T13:10:31;32.20;52.90
27803;DHT22;15182;48.174;11.562;2022-07-06T13:13:03;32.20;53.10
27803;DHT22;15182;48.174;11.562;2022-07-06T13:15:40;32.20;53.40
27803;DHT22;15182;48.174;11.562;2022-07-06T13:18:12;32.20;53.40
27803;DHT22;15182;48.174;11.562;2022-07-06T13:20:46;32.10;53.70
27803;DHT22;15182;48.174;11.562;2022-07-06T13:23:19;32.20;53.80
27803;DHT22;15182;48.174;11.562;2022-07-06T13:25:50;32.20;53.50
27803;DHT22;15182;48.174;11.562;2022-07-06T13:28:22;32.30;53.10
27803;DHT22;15182;48.174;11.562;2022-07-06T13:30:53;32.40;53.10
27803;DHT22;15182;48.174;11.562;2022-07-06T13:33:25;32.40;52.70
27803;DHT22;15182;48.174;11.562;2022-07-06T13:35:56;32.40;52.50
27803;DHT22;15182;48.174;11.562;2022-07-06T13:38:29;32.40;52.50
27803;DHT22;15182;48.174;11.562;2022-07-06T13:41:01;32.40;53.10
27803;DHT22;15182;48.174;11.562;2022-07-06T13:43:35;32.40;52.40
27803;DHT22;15182;48.174;11.562;2022-07-06T13:46:07;32.40;52.00
27803;DHT22;15182;48.174;11.562;2022-07-06T13:48:41;32.40;52.10
27803;DHT22;15182;48.174;11.562;2022-07-06T13:51:12;32.30;51.70
27803;DHT22;15182;48.174;11.562;2022-07-06T13:53:45;32.30;51.80
27803;DHT22;15182;48.174;11.562;2022-07-06T13:56:16;32.30;51.80
27803;DHT22;15182;48.174;11.562;2022-07-06T13:58:48;32.30;51.80
27803;DHT22;15182;48.174;11.562;2022-07-06T14:01:20;32.30;51.90
27803;DHT22;15182;48.174;11.562;2022-07-06T14:03:52;32.30;52.00
27803;DHT22;15182;48.174;11.562;2022-07-06T14:06:24;32.30;52.10
27803;DHT22;15182;48.174;11.562;2022-07-06T14:08:57;32.20;52.00
27803;DHT22;15182;48.174;11.562;2022-07-06T14:11:30;32.20;51.90
27803;DHT22;15182;48.174;11.562;2022-07-06T14:14:01;32.20;51.80
27803;DHT22;15182;48.174;11.562;2022-07-06T14:16:35;32.10;52.00
27803;DHT22;15182;48.174;11.562;2022-07-06T14:19:08;32.10;52.00
27803;DHT22;15182;48.174;11.562;2022-07-06T14:21:39;32.00;52.10
27803;DHT22;15182;48.174;11.562;2022-07-06T14:24:12;32.00;52.00
27803;DHT22;15182;48.174;11.562;2022-07-06T14:26:44;31.90;52.10
27803;DHT22;15182;48.174;11.562;2022-07-06T14:29:15;31.90;52.10
27803;DHT22;15182;48.174;11.562;2022-07-06T14:31:47;31.80;52.00
27803;DHT22;15182;48.174;11.562;2022-07-06T14:34:18;31.70;51.70
27803;DHT22;15182;48.174;11.562;2022-07-06T14:36:50;31.80;52.00
27803;DHT22;15182;48.174;11.562;2022-07-06T14:39:23;31.70;52.10
27803;DHT22;15182;48.174;11.562;2022-07-06T14:41:54;31.70;51.70
27803;DHT22;15182;48.174;11.562;2022-07-06T14:44:25;31.70;51.80
27803;DHT22;15182;48.174;11.562;2022-07-06T14:46:57;31.60;52.00
27803;DHT22;15182;48.174;11.562;2022-07-06T14:49:28;31.50;52.10
27803;DHT22;15182;48.174;11.562;2022-07-06T14:51:59;31.50;52.00
27803;DHT22;15182;48.174;11.562;2022-07-06T14:54:33;31.50;52.20
27803;DHT22;15182;48.174;11.562;2022-07-06T14:57:06;31.50;52.00
27803;DHT22;15182;48.174;11.562;2022-07-06T14:59:37;31.50;52.00
27803;DHT22;15182;48.174;11.562;2022-07-06T15:02:08;31.50;51.90
27803;DHT22;15182;48.174;11.562;2022-07-06T15:04:40;31.50;52.10
27803;DHT22;15182;48.174;11.562;2022-07-06T15:07:11;31.50;52.00
27803;DHT22;15182;48.174;11.562;2022-07-06T15:09:44;31.40;52.00
27803;DHT22;15182;48.174;11.562;2022-07-06T15:12:15;31.40;51.80
27803;DHT22;15182;48.174;11.562;2022-07-06T15:14:46;31.30;51.50
27803;DHT22;15182;48.174;11.562;2022-07-06T15:17:17;31.30;51.60
27803;DHT22;15182;48.174;11.562;2022-07-06T15:19:49;31.20;51.60
27803;DHT22;15182;48.174;11.562;2022-07-06T15:22:21;31.10;51.60
27803;DHT22;15182;48.174;11.562;2022-07-06T15:24:53;31.10;51.70
27803;DHT22;15182;48.174;11.562;2022-07-06T15:27:24;31.10;51.70
27803;DHT22;15182;48.174;11.562;2022-07-06T15:29:58;31.10;51.90
27803;DHT22;15182;48.174;11.562;2022-07-06T15:32:29;31.10;51.90
27803;DHT22;15182;48.174;11.562;2022-07-06T15:35:01;31.10;51.80
27803;DHT22;15182;48.174;11.562;2022-07-06T15:37:34;31.10;51.70
27803;DHT22;15182;48.174;11.562;2022-07-06T15:40:09;31.00;51.70
27803;DHT22;15182;48.174;11.562;2022-07-06T15:42:45;31.00;51.50
27803;DHT22;15182;48.174;11.562;2022-07-06T15:45:16;30.90;51.30
27803;DHT22;15182;48.174;11.562;2022-07-06T15:47:48;30.90;51.70